sensor_id;sensor_type;location;lat;lon;timestamp;P1;durP1;ratioP1;P2;durP2;ratioP2
38901;SDS011;24661;53.566;9.910;2022-12-18T00:01:41;21.77;;;10.67;;
38901;SDS011;24661;53.566;9.910;2022-12-18T00:04:07;24.03;;;12.20;;
38901;SDS011;24661;53.566;9.910;2022-12-18T00:06:49;23.93;;;12.10;;
38901;SDS011;24661;53.566;9.910;2022-12-18T00:09:15;26.33;;;11.40;;
38901;SDS011;24661;53.566;9.910;2022-12-18T00:11:41;22.80;;;12.40;;
38901;SDS011;24661;53.566;9.910;2022-12-18T00:14:07;21.30;;;10.97;;
38901;SDS011;24661;53.566;9.910;2022-12-18T00:16:34;23.63;;;11.83;;
38901;SDS011;24661;53.566;9.910;2022-12-18T00:19:02;17.87;;;10.60;;
38901;SDS011;24661;53.566;9.910;2022-12-18T00:21:29;20.50;;;11.93;;
38901;SDS011;24661;53.566;9.910;2022-12-18T00:23:56;23.53;;;11.20;;
38901;SDS011;24661;53.566;9.910;2022-12-18T00:26:23;19.87;;;10.73;;
38901;SDS011;24661;53.566;9.910;2022-12-18T00:28:51;19.93;;;11.83;;
38901;SDS011;24661;53.566;9.910;2022-12-18T00:31:18;19.17;;;10.73;;
38901;SDS011;24661;53.566;9.910;2022-12-18T00:33:46;25.30;;;11.07;;
38901;SDS011;24661;53.566;9.910;2022-12-18T00:36:16;22.33;;;11.13;;
38901;SDS011;24661;53.566;9.910;2022-12-18T00:38:44;18.97;;;11.00;;
38901;SDS011;24661;53.566;9.910;2022-12-18T00:41:11;18.50;;;9.57;;
38901;SDS011;24661;53.566;9.910;2022-12-18T00:43:38;20.47;;;11.13;;
38901;SDS011;24661;53.566;9.910;2022-12-18T00:46:04;16.30;;;10.53;;
38901;SDS011;24661;53.566;9.910;2022-12-18T00:48:31;21.93;;;10.70;;
38901;SDS011;24661;53.566;9.910;2022-12-18T00:50:57;24.10;;;10.60;;
38901;SDS011;24661;53.566;9.910;2022-12-18T00:53:23;22.10;;;11.73;;
38901;SDS011;24661;53.566;9.910;2022-12-18T00:55:48;22.40;;;11.10;;
38901;SDS011;24661;53.566;9.910;2022-12-18T00:58:15;21.03;;;10.70;;
38901;SDS011;24661;53.566;9.910;2022-12-18T01:00:41;21.07;;;10.90;;
38901;SDS011;24661;53.566;9.910;2022-12-18T01:03:07;18.70;;;9.33;;
38901;SDS011;24661;53.566;9.910;2022-12-18T01:05:38;19.90;;;9.50;;
38901;SDS011;24661;53.566;9.910;2022-12-18T01:08:05;18.97;;;10.13;;
38901;SDS011;24661;53.566;9.910;2022-12-18T01:10:30;20.80;;;10.60;;
38901;SDS011;24661;53.566;9.910;2022-12-18T01:12:56;19.37;;;10.57;;
38901;SDS011;24661;53.566;9.910;2022-12-18T01:15:21;15.40;;;9.93;;
38901;SDS011;24661;53.566;9.910;2022-12-18T01:17:47;22.60;;;10.33;;
38901;SDS011;24661;53.566;9.910;2022-12-18T01:20:13;20.77;;;10.70;;
38901;SDS011;24661;53.566;9.910;2022-12-18T01:22:39;22.30;;;10.67;;
38901;SDS011;24661;53.566;9.910;2022-12-18T01:25:05;17.53;;;9.77;;
38901;SDS011;24661;53.566;9.910;2022-12-18T01:27:32;21.17;;;10.33;;
38901;SDS011;24661;53.566;9.910;2022-12-18T01:29:58;15.77;;;9.63;;
38901;SDS011;24661;53.566;9.910;2022-12-18T01:32:24;18.97;;;9.80;;
38901;SDS011;24661;53.566;9.910;2022-12-18T01:34:50;21.30;;;10.50;;
38901;SDS011;24661;53.566;9.910;2022-12-18T01:37:15;20.20;;;10.53;;
38901;SDS011;24661;53.566;9.910;2022-12-18T01:39:41;14.93;;;9.13;;
38901;SDS011;24661;53.566;9.910;2022-12-18T01:42:13;18.17;;;9.17;;
38901;SDS011;24661;53.566;9.910;2022-12-18T01:47:28;17.00;;;10.30;;
38901;SDS011;24661;53.566;9.910;2022-12-18T01:49:54;24.10;;;10.07;;
38901;SDS011;24661;53.566;9.910;2022-12-18T01:52:22;22.30;;;10.77;;
38901;SDS011;24661;53.566;9.910;2022-12-18T01:54:51;18.47;;;9.90;;
38901;SDS011;24661;53.566;9.910;2022-12-18T01:57:18;17.70;;;9.80;;
38901;SDS011;24661;53.566;9.910;2022-12-18T01:59:45;18.30;;;9.83;;
38901;SDS011;24661;53.566;9.910;2022-12-18T02:02:15;22.43;;;10.97;;
38901;SDS011;24661;53.566;9.910;2022-12-18T02:04:41;17.43;;;8.97;;
38901;SDS011;24661;53.566;9.910;2022-12-18T02:07:11;18.33;;;9.73;;
38901;SDS011;24661;53.566;9.910;2022-12-18T02:09:42;14.20;;;9.03;;
38901;SDS011;24661;53.566;9.910;2022-12-18T02:12:23;17.93;;;9.47;;
38901;SDS011;24661;53.566;9.910;2022-12-18T02:28:17;14.70;;;9.40;;
38901;SDS011;24661;53.566;9.910;2022-12-18T02:30:47;20.33;;;9.97;;
38901;SDS011;24661;53.566;9.910;2022-12-18T02:33:14;18.27;;;9.63;;
38901;SDS011;24661;53.566;9.910;2022-12-18T02:35:42;22.60;;;10.00;;
38901;SDS011;24661;53.566;9.910;2022-12-18T02:38:10;14.30;;;8.90;;
38901;SDS011;24661;53.566;9.910;2022-12-18T02:40:37;24.47;;;10.60;;
38901;SDS011;24661;53.566;9.910;2022-12-18T02:43:08;19.30;;;9.60;;
38901;SDS011;24661;53.566;9.910;2022-12-18T02:45:36;20.20;;;9.90;;
38901;SDS011;24661;53.566;9.910;2022-12-18T02:48:35;14.10;;;8.47;;
38901;SDS011;24661;53.566;9.910;2022-12-18T02:53:57;15.63;;;8.47;;
38901;SDS011;24661;53.566;9.910;2022-12-18T02:56:43;19.47;;;9.07;;
38901;SDS011;24661;53.566;9.910;2022-12-18T02:59:19;15.47;;;9.23;;
38901;SDS011;24661;53.566;9.910;2022-12-18T03:04:28;16.13;;;9.80;;
38901;SDS011;24661;53.566;9.910;2022-12-18T03:07:03;16.80;;;9.03;;
38901;SDS011;24661;53.566;9.910;2022-12-18T03:09:35;19.13;;;10.27;;
38901;SDS011;24661;53.566;9.910;2022-12-18T03:12:10;14.10;;;8.47;;
38901;SDS011;24661;53.566;9.910;2022-12-18T03:14:57;20.57;;;9.27;;
38901;SDS011;24661;53.566;9.910;2022-12-18T03:17:30;13.87;;;8.47;;
38901;SDS011;24661;53.566;9.910;2022-12-18T03:19:58;15.23;;;8.97;;
38901;SDS011;24661;53.566;9.910;2022-12-18T03:22:30;15.93;;;9.10;;
38901;SDS011;24661;53.566;9.910;2022-12-18T03:24:58;20.90;;;9.13;;
38901;SDS011;24661;53.566;9.910;2022-12-18T03:27:27;19.77;;;9.60;;
38901;SDS011;24661;53.566;9.910;2022-12-18T03:30:05;18.63;;;9.33;;
38901;SDS011;24661;53.566;9.910;2022-12-18T03:32:42;17.20;;;9.00;;
38901;SDS011;24661;53.566;9.910;2022-12-18T03:35:40;20.53;;;9.83;;
38901;SDS011;24661;53.566;9.910;2022-12-18T03:38:07;16.93;;;9.67;;
38901;SDS011;24661;53.566;9.910;2022-12-18T03:43:53;15.03;;;8.23;;
38901;SDS011;24661;53.566;9.910;2022-12-18T03:46:10;17.97;;;9.30;;
38901;SDS011;24661;53.566;9.910;2022-12-18T03:48:44;13.43;;;8.00;;
38901;SDS011;24661;53.566;9.910;2022-12-18T03:51:18;18.03;;;9.43;;
38901;SDS011;24661;53.566;9.910;2022-12-18T03:53:55;19.37;;;8.50;;
38901;SDS011;24661;53.566;9.910;2022-12-18T03:56:25;15.40;;;9.27;;
38901;SDS011;24661;53.566;9.910;2022-12-18T03:58:55;18.83;;;9.27;;
38901;SDS011;24661;53.566;9.910;2022-12-18T04:01:23;19.80;;;8.80;;
38901;SDS011;24661;53.566;9.910;2022-12-18T04:03:56;17.37;;;8.13;;
38901;SDS011;24661;53.566;9.910;2022-12-18T04:06:25;16.13;;;8.83;;
38901;SDS011;24661;53.566;9.910;2022-12-18T04:08:52;19.90;;;9.10;;
38901;SDS011;24661;53.566;9.910;2022-12-18T04:11:18;16.37;;;8.23;;
38901;SDS011;24661;53.566;9.910;2022-12-18T04:13:44;17.03;;;9.33;;
38901;SDS011;24661;53.566;9.910;2022-12-18T04:16:10;18.60;;;8.10;;
38901;SDS011;24661;53.566;9.910;2022-12-18T04:18:35;18.17;;;9.37;;
38901;SDS011;24661;53.566;9.910;2022-12-18T04:21:02;14.10;;;8.73;;
38901;SDS011;24661;53.566;9.910;2022-12-18T04:23:27;16.37;;;8.87;;
38901;SDS011;24661;53.566;9.910;2022-12-18T04:25:53;15.90;;;8.47;;
38901;SDS011;24661;53.566;9.910;2022-12-18T04:28:19;13.43;;;8.17;;
38901;SDS011;24661;53.566;9.910;2022-12-18T04:30:45;16.70;;;8.13;;
38901;SDS011;24661;53.566;9.910;2022-12-18T04:33:11;13.67;;;7.63;;
38901;SDS011;24661;53.566;9.910;2022-12-18T04:35:38;19.30;;;8.27;;
38901;SDS011;24661;53.566;9.910;2022-12-18T04:38:05;19.93;;;8.57;;
38901;SDS011;24661;53.566;9.910;2022-12-18T04:40:32;14.27;;;8.00;;
38901;SDS011;24661;53.566;9.910;2022-12-18T04:42:57;14.90;;;8.10;;
38901;SDS011;24661;53.566;9.910;2022-12-18T04:45:23;15.73;;;8.40;;
38901;SDS011;24661;53.566;9.910;2022-12-18T04:47:48;18.77;;;8.57;;
38901;SDS011;24661;53.566;9.910;2022-12-18T04:50:14;15.00;;;7.97;;
38901;SDS011;24661;53.566;9.910;2022-12-18T04:52:40;20.27;;;7.67;;
38901;SDS011;24661;53.566;9.910;2022-12-18T04:55:05;21.00;;;9.40;;
38901;SDS011;24661;53.566;9.910;2022-12-18T04:57:31;15.90;;;7.67;;
38901;SDS011;24661;53.566;9.910;2022-12-18T04:59:57;12.30;;;7.43;;
38901;SDS011;24661;53.566;9.910;2022-12-18T05:02:23;13.70;;;8.13;;
38901;SDS011;24661;53.566;9.910;2022-12-18T05:04:48;13.77;;;8.37;;
38901;SDS011;24661;53.566;9.910;2022-12-18T05:07:14;14.33;;;7.87;;
38901;SDS011;24661;53.566;9.910;2022-12-18T05:09:40;17.00;;;9.17;;
38901;SDS011;24661;53.566;9.910;2022-12-18T05:12:05;15.53;;;8.20;;
38901;SDS011;24661;53.566;9.910;2022-12-18T05:14:31;15.77;;;7.97;;
38901;SDS011;24661;53.566;9.910;2022-12-18T05:16:57;14.13;;;8.03;;
38901;SDS011;24661;53.566;9.910;2022-12-18T05:19:23;13.33;;;7.87;;
38901;SDS011;24661;53.566;9.910;2022-12-18T05:21:48;15.57;;;8.70;;
38901;SDS011;24661;53.566;9.910;2022-12-18T05:24:14;14.13;;;8.00;;
38901;SDS011;24661;53.566;9.910;2022-12-18T05:26:39;16.13;;;8.70;;
38901;SDS011;24661;53.566;9.910;2022-12-18T05:29:05;17.87;;;8.37;;
38901;SDS011;24661;53.566;9.910;2022-12-18T05:31:31;16.53;;;9.27;;
38901;SDS011;24661;53.566;9.910;2022-12-18T05:33:57;17.77;;;8.90;;
38901;SDS011;24661;53.566;9.910;2022-12-18T05:36:23;16.33;;;8.60;;
38901;SDS011;24661;53.566;9.910;2022-12-18T05:38:49;14.43;;;8.13;;
38901;SDS011;24661;53.566;9.910;2022-12-18T05:41:15;18.67;;;9.13;;
38901;SDS011;24661;53.566;9.910;2022-12-18T05:43:40;14.73;;;8.83;;
38901;SDS011;24661;53.566;9.910;2022-12-18T05:46:07;14.73;;;8.10;;
38901;SDS011;24661;53.566;9.910;2022-12-18T05:48:36;16.30;;;8.43;;
38901;SDS011;24661;53.566;9.910;2022-12-18T05:51:05;18.17;;;9.00;;
38901;SDS011;24661;53.566;9.910;2022-12-18T05:53:33;13.80;;;8.37;;
38901;SDS011;24661;53.566;9.910;2022-12-18T05:56:00;18.50;;;9.53;;
38901;SDS011;24661;53.566;9.910;2022-12-18T05:58:28;15.37;;;9.17;;
38901;SDS011;24661;53.566;9.910;2022-12-18T06:00:54;18.03;;;8.83;;
38901;SDS011;24661;53.566;9.910;2022-12-18T06:03:20;20.27;;;9.80;;
38901;SDS011;24661;53.566;9.910;2022-12-18T06:05:46;19.63;;;9.07;;
38901;SDS011;24661;53.566;9.910;2022-12-18T06:08:12;18.73;;;9.40;;
38901;SDS011;24661;53.566;9.910;2022-12-18T06:10:39;18.13;;;9.80;;
38901;SDS011;24661;53.566;9.910;2022-12-18T06:13:05;15.50;;;8.93;;
38901;SDS011;24661;53.566;9.910;2022-12-18T06:15:31;16.43;;;9.30;;
38901;SDS011;24661;53.566;9.910;2022-12-18T06:17:57;20.63;;;8.97;;
38901;SDS011;24661;53.566;9.910;2022-12-18T06:20:25;15.53;;;8.87;;
38901;SDS011;24661;53.566;9.910;2022-12-18T06:22:50;15.20;;;8.77;;
38901;SDS011;24661;53.566;9.910;2022-12-18T06:25:16;15.93;;;9.17;;
38901;SDS011;24661;53.566;9.910;2022-12-18T06:27:42;15.30;;;8.80;;
38901;SDS011;24661;53.566;9.910;2022-12-18T06:30:08;12.80;;;8.27;;
38901;SDS011;24661;53.566;9.910;2022-12-18T06:32:34;16.67;;;8.87;;
38901;SDS011;24661;53.566;9.910;2022-12-18T06:34:59;18.30;;;8.90;;
38901;SDS011;24661;53.566;9.910;2022-12-18T06:37:25;17.30;;;9.13;;
38901;SDS011;24661;53.566;9.910;2022-12-18T06:39:54;16.60;;;8.43;;
38901;SDS011;24661;53.566;9.910;2022-12-18T06:42:21;14.73;;;8.43;;
38901;SDS011;24661;53.566;9.910;2022-12-18T06:44:47;14.53;;;8.50;;
38901;SDS011;24661;53.566;9.910;2022-12-18T06:47:12;16.20;;;9.37;;
38901;SDS011;24661;53.566;9.910;2022-12-18T06:49:38;13.83;;;8.30;;
38901;SDS011;24661;53.566;9.910;2022-12-18T06:52:04;17.50;;;8.70;;
38901;SDS011;24661;53.566;9.910;2022-12-18T06:54:29;18.63;;;9.70;;
38901;SDS011;24661;53.566;9.910;2022-12-18T06:56:55;14.27;;;8.80;;
38901;SDS011;24661;53.566;9.910;2022-12-18T06:59:21;19.77;;;9.73;;
38901;SDS011;24661;53.566;9.910;2022-12-18T07:01:46;15.83;;;9.23;;
38901;SDS011;24661;53.566;9.910;2022-12-18T07:04:12;19.03;;;9.87;;
38901;SDS011;24661;53.566;9.910;2022-12-18T07:06:38;15.83;;;8.70;;
38901;SDS011;24661;53.566;9.910;2022-12-18T07:09:04;16.20;;;8.87;;
38901;SDS011;24661;53.566;9.910;2022-12-18T07:11:31;16.30;;;8.40;;
38901;SDS011;24661;53.566;9.910;2022-12-18T07:13:57;15.10;;;9.03;;
38901;SDS011;24661;53.566;9.910;2022-12-18T07:16:23;17.43;;;7.87;;
38901;SDS011;24661;53.566;9.910;2022-12-18T07:18:48;12.03;;;7.93;;
38901;SDS011;24661;53.566;9.910;2022-12-18T07:21:15;19.17;;;8.90;;
38901;SDS011;24661;53.566;9.910;2022-12-18T07:23:42;19.07;;;8.43;;
38901;SDS011;24661;53.566;9.910;2022-12-18T07:26:10;14.60;;;8.57;;
38901;SDS011;24661;53.566;9.910;2022-12-18T07:28:38;17.13;;;8.33;;
38901;SDS011;24661;53.566;9.910;2022-12-18T07:31:05;15.13;;;8.13;;
38901;SDS011;24661;53.566;9.910;2022-12-18T07:33:33;14.90;;;8.77;;
38901;SDS011;24661;53.566;9.910;2022-12-18T07:36:00;18.47;;;8.77;;
38901;SDS011;24661;53.566;9.910;2022-12-18T07:38:30;18.03;;;9.07;;
38901;SDS011;24661;53.566;9.910;2022-12-18T07:41:00;14.47;;;7.43;;
38901;SDS011;24661;53.566;9.910;2022-12-18T07:43:30;15.40;;;9.13;;
38901;SDS011;24661;53.566;9.910;2022-12-18T07:45:55;14.93;;;8.93;;
38901;SDS011;24661;53.566;9.910;2022-12-18T07:48:21;17.73;;;9.30;;
38901;SDS011;24661;53.566;9.910;2022-12-18T07:50:47;21.13;;;10.00;;
38901;SDS011;24661;53.566;9.910;2022-12-18T07:53:12;15.60;;;8.50;;
38901;SDS011;24661;53.566;9.910;2022-12-18T07:55:39;16.03;;;8.50;;
38901;SDS011;24661;53.566;9.910;2022-12-18T07:58:06;16.10;;;7.80;;
38901;SDS011;24661;53.566;9.910;2022-12-18T08:00:33;15.83;;;8.63;;
38901;SDS011;24661;53.566;9.910;2022-12-18T08:02:59;16.80;;;8.53;;
38901;SDS011;24661;53.566;9.910;2022-12-18T08:05:25;15.33;;;8.63;;
38901;SDS011;24661;53.566;9.910;2022-12-18T08:07:51;15.90;;;8.83;;
38901;SDS011;24661;53.566;9.910;2022-12-18T08:10:17;13.97;;;8.00;;
38901;SDS011;24661;53.566;9.910;2022-12-18T08:12:43;16.97;;;9.03;;
38901;SDS011;24661;53.566;9.910;2022-12-18T08:15:08;16.00;;;8.83;;
38901;SDS011;24661;53.566;9.910;2022-12-18T08:17:34;17.93;;;8.50;;
38901;SDS011;24661;53.566;9.910;2022-12-18T08:20:00;22.73;;;8.17;;
38901;SDS011;24661;53.566;9.910;2022-12-18T08:22:25;14.10;;;6.70;;
38901;SDS011;24661;53.566;9.910;2022-12-18T08:24:51;17.50;;;8.53;;
38901;SDS011;24661;53.566;9.910;2022-12-18T08:27:17;12.93;;;7.43;;
38901;SDS011;24661;53.566;9.910;2022-12-18T08:29:42;20.93;;;9.73;;
38901;SDS011;24661;53.566;9.910;2022-12-18T08:32:08;12.17;;;7.83;;
38901;SDS011;24661;53.566;9.910;2022-12-18T08:34:34;14.80;;;7.77;;
38901;SDS011;24661;53.566;9.910;2022-12-18T08:36:59;15.73;;;8.77;;
38901;SDS011;24661;53.566;9.910;2022-12-18T08:39:25;18.17;;;8.13;;
38901;SDS011;24661;53.566;9.910;2022-12-18T08:41:51;15.87;;;8.03;;
38901;SDS011;24661;53.566;9.910;2022-12-18T08:44:35;16.67;;;8.07;;
38901;SDS011;24661;53.566;9.910;2022-12-18T08:47:04;14.83;;;7.93;;
38901;SDS011;24661;53.566;9.910;2022-12-18T08:49:31;13.33;;;7.27;;
38901;SDS011;24661;53.566;9.910;2022-12-18T08:51:57;13.57;;;8.13;;
38901;SDS011;24661;53.566;9.910;2022-12-18T08:54:23;14.50;;;8.00;;
38901;SDS011;24661;53.566;9.910;2022-12-18T08:56:49;9.80;;;7.63;;
38901;SDS011;24661;53.566;9.910;2022-12-18T08:59:16;14.67;;;8.50;;
38901;SDS011;24661;53.566;9.910;2022-12-18T09:01:42;14.67;;;8.33;;
38901;SDS011;24661;53.566;9.910;2022-12-18T09:04:11;15.97;;;8.17;;
38901;SDS011;24661;53.566;9.910;2022-12-18T09:06:39;18.00;;;8.80;;
38901;SDS011;24661;53.566;9.910;2022-12-18T09:09:05;13.63;;;8.27;;
38901;SDS011;24661;53.566;9.910;2022-12-18T09:11:32;10.33;;;6.77;;
38901;SDS011;24661;53.566;9.910;2022-12-18T09:13:59;14.63;;;8.10;;
38901;SDS011;24661;53.566;9.910;2022-12-18T09:16:26;18.07;;;7.47;;
38901;SDS011;24661;53.566;9.910;2022-12-18T09:18:53;18.07;;;8.20;;
38901;SDS011;24661;53.566;9.910;2022-12-18T09:21:25;17.60;;;9.30;;
38901;SDS011;24661;53.566;9.910;2022-12-18T09:23:52;14.10;;;8.07;;
38901;SDS011;24661;53.566;9.910;2022-12-18T09:26:20;14.23;;;8.23;;
38901;SDS011;24661;53.566;9.910;2022-12-18T09:28:46;14.17;;;8.47;;
38901;SDS011;24661;53.566;9.910;2022-12-18T09:31:12;12.10;;;7.33;;
38901;SDS011;24661;53.566;9.910;2022-12-18T09:33:38;12.70;;;8.03;;
38901;SDS011;24661;53.566;9.910;2022-12-18T09:36:04;15.13;;;8.10;;
38901;SDS011;24661;53.566;9.910;2022-12-18T09:38:31;13.97;;;8.30;;
38901;SDS011;24661;53.566;9.910;2022-12-18T09:40:59;18.03;;;7.77;;
38901;SDS011;24661;53.566;9.910;2022-12-18T09:43:42;19.37;;;8.73;;
38901;SDS011;24661;53.566;9.910;2022-12-18T09:46:19;17.63;;;8.97;;
38901;SDS011;24661;53.566;9.910;2022-12-18T09:48:50;14.13;;;7.67;;
38901;SDS011;24661;53.566;9.910;2022-12-18T09:51:21;14.87;;;8.30;;
38901;SDS011;24661;53.566;9.910;2022-12-18T09:53:51;14.30;;;7.97;;
38901;SDS011;24661;53.566;9.910;2022-12-18T09:56:22;18.73;;;8.53;;
38901;SDS011;24661;53.566;9.910;2022-12-18T09:58:57;13.17;;;7.60;;
38901;SDS011;24661;53.566;9.910;2022-12-18T10:01:25;12.67;;;7.40;;
38901;SDS011;24661;53.566;9.910;2022-12-18T10:03:52;17.97;;;9.20;;
38901;SDS011;24661;53.566;9.910;2022-12-18T10:09:05;16.13;;;7.80;;
38901;SDS011;24661;53.566;9.910;2022-12-18T10:14:23;13.60;;;8.07;;
38901;SDS011;24661;53.566;9.910;2022-12-18T10:17:17;13.97;;;8.47;;
38901;SDS011;24661;53.566;9.910;2022-12-18T10:20:12;14.97;;;8.77;;
38901;SDS011;24661;53.566;9.910;2022-12-18T10:26:02;16.77;;;8.17;;
38901;SDS011;24661;53.566;9.910;2022-12-18T10:28:33;13.30;;;8.00;;
38901;SDS011;24661;53.566;9.910;2022-12-18T10:31:07;13.87;;;8.03;;
38901;SDS011;24661;53.566;9.910;2022-12-18T10:33:44;11.07;;;6.83;;
38901;SDS011;24661;53.566;9.910;2022-12-18T10:36:09;10.53;;;7.17;;
38901;SDS011;24661;53.566;9.910;2022-12-18T10:38:35;10.50;;;6.63;;
38901;SDS011;24661;53.566;9.910;2022-12-18T10:41:05;16.50;;;8.20;;
38901;SDS011;24661;53.566;9.910;2022-12-18T10:43:36;12.50;;;7.60;;
38901;SDS011;24661;53.566;9.910;2022-12-18T10:46:07;13.83;;;8.20;;
38901;SDS011;24661;53.566;9.910;2022-12-18T10:51:30;15.50;;;8.00;;
38901;SDS011;24661;53.566;9.910;2022-12-18T10:54:01;13.10;;;7.27;;
38901;SDS011;24661;53.566;9.910;2022-12-18T10:56:37;16.80;;;7.80;;
38901;SDS011;24661;53.566;9.910;2022-12-18T10:59:07;11.73;;;7.53;;
38901;SDS011;24661;53.566;9.910;2022-12-18T11:01:49;17.87;;;8.20;;
38901;SDS011;24661;53.566;9.910;2022-12-18T11:04:19;12.33;;;7.57;;
38901;SDS011;24661;53.566;9.910;2022-12-18T11:07:06;13.33;;;7.70;;
38901;SDS011;24661;53.566;9.910;2022-12-18T11:09:34;16.43;;;8.77;;
38901;SDS011;24661;53.566;9.910;2022-12-18T11:12:02;16.47;;;8.17;;
38901;SDS011;24661;53.566;9.910;2022-12-18T11:17:16;13.37;;;7.90;;
38901;SDS011;24661;53.566;9.910;2022-12-18T11:19:44;15.53;;;7.70;;
38901;SDS011;24661;53.566;9.910;2022-12-18T11:25:04;14.57;;;8.53;;
38901;SDS011;24661;53.566;9.910;2022-12-18T11:27:46;15.57;;;8.63;;
38901;SDS011;24661;53.566;9.910;2022-12-18T11:32:45;19.80;;;10.43;;
38901;SDS011;24661;53.566;9.910;2022-12-18T11:37:57;13.87;;;8.37;;
38901;SDS011;24661;53.566;9.910;2022-12-18T11:40:31;19.37;;;9.33;;
38901;SDS011;24661;53.566;9.910;2022-12-18T11:45:34;14.93;;;8.40;;
38901;SDS011;24661;53.566;9.910;2022-12-18T11:48:16;15.60;;;9.13;;
38901;SDS011;24661;53.566;9.910;2022-12-18T11:53:15;12.90;;;8.07;;
38901;SDS011;24661;53.566;9.910;2022-12-18T11:55:48;14.13;;;8.10;;
38901;SDS011;24661;53.566;9.910;2022-12-18T12:00:56;15.67;;;8.77;;
38901;SDS011;24661;53.566;9.910;2022-12-18T12:09:25;15.77;;;9.10;;
38901;SDS011;24661;53.566;9.910;2022-12-18T12:12:14;20.47;;;9.70;;
38901;SDS011;24661;53.566;9.910;2022-12-18T12:14:46;18.57;;;10.47;;
38901;SDS011;24661;53.566;9.910;2022-12-18T12:17:54;22.10;;;11.33;;
38901;SDS011;24661;53.566;9.910;2022-12-18T12:26:34;18.27;;;10.33;;
38901;SDS011;24661;53.566;9.910;2022-12-18T12:29:22;17.40;;;9.57;;
38901;SDS011;24661;53.566;9.910;2022-12-18T12:34:34;18.70;;;10.00;;
38901;SDS011;24661;53.566;9.910;2022-12-18T12:40:00;17.23;;;10.07;;
38901;SDS011;24661;53.566;9.910;2022-12-18T12:42:41;16.57;;;10.00;;
38901;SDS011;24661;53.566;9.910;2022-12-18T12:45:34;16.53;;;9.53;;
38901;SDS011;24661;53.566;9.910;2022-12-18T12:48:05;20.13;;;9.33;;
38901;SDS011;24661;53.566;9.910;2022-12-18T12:50:40;15.83;;;9.50;;
38901;SDS011;24661;53.566;9.910;2022-12-18T12:53:07;19.33;;;10.10;;
38901;SDS011;24661;53.566;9.910;2022-12-18T12:55:39;15.97;;;9.43;;
38901;SDS011;24661;53.566;9.910;2022-12-18T12:58:17;15.07;;;9.27;;
38901;SDS011;24661;53.566;9.910;2022-12-18T13:03:54;18.63;;;8.77;;
38901;SDS011;24661;53.566;9.910;2022-12-18T13:09:32;18.10;;;9.93;;
38901;SDS011;24661;53.566;9.910;2022-12-18T13:12:03;16.97;;;9.27;;
38901;SDS011;24661;53.566;9.910;2022-12-18T13:14:49;16.30;;;9.00;;
38901;SDS011;24661;53.566;9.910;2022-12-18T13:19:44;18.27;;;9.60;;
38901;SDS011;24661;53.566;9.910;2022-12-18T13:22:24;20.43;;;10.53;;
38901;SDS011;24661;53.566;9.910;2022-12-18T13:24:53;17.50;;;8.83;;
38901;SDS011;24661;53.566;9.910;2022-12-18T13:41:42;21.97;;;10.80;;
38901;SDS011;24661;53.566;9.910;2022-12-18T13:43:46;18.60;;;10.73;;
38901;SDS011;24661;53.566;9.910;2022-12-18T13:46:18;27.60;;;13.23;;
38901;SDS011;24661;53.566;9.910;2022-12-18T13:49:01;23.63;;;12.27;;
38901;SDS011;24661;53.566;9.910;2022-12-18T13:51:49;24.53;;;12.77;;
38901;SDS011;24661;53.566;9.910;2022-12-18T13:54:39;27.93;;;12.60;;
38901;SDS011;24661;53.566;9.910;2022-12-18T13:57:04;22.43;;;11.07;;
38901;SDS011;24661;53.566;9.910;2022-12-18T13:59:35;29.47;;;14.00;;
38901;SDS011;24661;53.566;9.910;2022-12-18T14:02:14;32.10;;;13.27;;
38901;SDS011;24661;53.566;9.910;2022-12-18T14:04:44;37.07;;;13.90;;
38901;SDS011;24661;53.566;9.910;2022-12-18T14:07:12;30.00;;;14.53;;
38901;SDS011;24661;53.566;9.910;2022-12-18T14:09:40;28.90;;;13.73;;
38901;SDS011;24661;53.566;9.910;2022-12-18T14:12:18;24.87;;;12.87;;
38901;SDS011;24661;53.566;9.910;2022-12-18T14:15:21;32.63;;;13.67;;
38901;SDS011;24661;53.566;9.910;2022-12-18T14:17:52;25.30;;;13.37;;
38901;SDS011;24661;53.566;9.910;2022-12-18T14:20:20;29.40;;;13.23;;
38901;SDS011;24661;53.566;9.910;2022-12-18T14:22:47;26.23;;;13.37;;
38901;SDS011;24661;53.566;9.910;2022-12-18T14:27:42;28.57;;;13.17;;
38901;SDS011;24661;53.566;9.910;2022-12-18T14:30:43;28.03;;;13.03;;
38901;SDS011;24661;53.566;9.910;2022-12-18T14:33:04;25.97;;;14.03;;
38901;SDS011;24661;53.566;9.910;2022-12-18T14:35:35;32.60;;;13.07;;
38901;SDS011;24661;53.566;9.910;2022-12-18T14:41:06;28.30;;;14.17;;
38901;SDS011;24661;53.566;9.910;2022-12-18T14:43:37;29.47;;;14.50;;
38901;SDS011;24661;53.566;9.910;2022-12-18T14:46:06;29.07;;;13.23;;
38901;SDS011;24661;53.566;9.910;2022-12-18T14:49:46;28.63;;;13.83;;
38901;SDS011;24661;53.566;9.910;2022-12-18T14:52:01;31.20;;;15.37;;
38901;SDS011;24661;53.566;9.910;2022-12-18T14:54:28;31.73;;;14.47;;
38901;SDS011;24661;53.566;9.910;2022-12-18T14:59:31;33.00;;;14.77;;
38901;SDS011;24661;53.566;9.910;2022-12-18T15:01:59;32.00;;;14.20;;
38901;SDS011;24661;53.566;9.910;2022-12-18T15:04:47;29.63;;;12.87;;
38901;SDS011;24661;53.566;9.910;2022-12-18T15:07:24;27.97;;;14.17;;
38901;SDS011;24661;53.566;9.910;2022-12-18T15:10:10;36.57;;;16.23;;
38901;SDS011;24661;53.566;9.910;2022-12-18T15:20:39;34.63;;;15.27;;
38901;SDS011;24661;53.566;9.910;2022-12-18T15:23:23;32.67;;;14.57;;
38901;SDS011;24661;53.566;9.910;2022-12-18T15:28:47;33.83;;;15.03;;
38901;SDS011;24661;53.566;9.910;2022-12-18T15:33:41;34.53;;;14.27;;
38901;SDS011;24661;53.566;9.910;2022-12-18T15:36:25;32.27;;;15.40;;
38901;SDS011;24661;53.566;9.910;2022-12-18T15:38:51;41.23;;;16.57;;
38901;SDS011;24661;53.566;9.910;2022-12-18T15:41:19;33.63;;;14.40;;
38901;SDS011;24661;53.566;9.910;2022-12-18T15:43:47;35.07;;;15.90;;
38901;SDS011;24661;53.566;9.910;2022-12-18T15:46:22;38.77;;;15.47;;
38901;SDS011;24661;53.566;9.910;2022-12-18T15:48:51;30.90;;;13.53;;
38901;SDS011;24661;53.566;9.910;2022-12-18T15:53:58;35.87;;;15.60;;
38901;SDS011;24661;53.566;9.910;2022-12-18T15:56:27;30.30;;;14.53;;
38901;SDS011;24661;53.566;9.910;2022-12-18T15:59:12;30.90;;;14.63;;
38901;SDS011;24661;53.566;9.910;2022-12-18T16:01:39;32.17;;;14.33;;
38901;SDS011;24661;53.566;9.910;2022-12-18T16:04:08;31.80;;;14.43;;
38901;SDS011;24661;53.566;9.910;2022-12-18T16:06:36;31.17;;;15.27;;
38901;SDS011;24661;53.566;9.910;2022-12-18T16:09:02;37.83;;;15.90;;
38901;SDS011;24661;53.566;9.910;2022-12-18T16:11:28;37.83;;;16.83;;
38901;SDS011;24661;53.566;9.910;2022-12-18T16:14:19;40.00;;;14.73;;
38901;SDS011;24661;53.566;9.910;2022-12-18T16:16:47;37.37;;;15.30;;
38901;SDS011;24661;53.566;9.910;2022-12-18T16:19:14;38.80;;;15.87;;
38901;SDS011;24661;53.566;9.910;2022-12-18T16:21:41;36.87;;;15.80;;
38901;SDS011;24661;53.566;9.910;2022-12-18T16:24:14;35.93;;;15.53;;
38901;SDS011;24661;53.566;9.910;2022-12-18T16:26:46;32.23;;;14.70;;
38901;SDS011;24661;53.566;9.910;2022-12-18T16:29:13;34.20;;;15.87;;
38901;SDS011;24661;53.566;9.910;2022-12-18T16:31:39;33.87;;;16.13;;
38901;SDS011;24661;53.566;9.910;2022-12-18T16:34:23;30.33;;;13.43;;
38901;SDS011;24661;53.566;9.910;2022-12-18T16:36:52;35.37;;;15.20;;
38901;SDS011;24661;53.566;9.910;2022-12-18T16:39:18;29.00;;;13.83;;
38901;SDS011;24661;53.566;9.910;2022-12-18T16:41:45;37.77;;;14.17;;
38901;SDS011;24661;53.566;9.910;2022-12-18T16:44:11;33.60;;;15.37;;
38901;SDS011;24661;53.566;9.910;2022-12-18T16:46:37;29.63;;;12.73;;